sensor_id;sensor_type;location;lat;lon;timestamp;pressure;altitude;pressure_sealevel;temperature;humidity
5952;BME280;3001;42.622;23.194;2023-02-16T00:00:58;92386.88;;;0.92;85.53
5952;BME280;3001;42.622;23.194;2023-02-16T00:03:25;92381.28;;;0.84;84.79
5952;BME280;3001;42.622;23.194;2023-02-16T00:05:52;92388.16;;;0.83;84.81
5952;BME280;3001;42.622;23.194;2023-02-16T00:08:18;92388.09;;;0.90;84.84
5952;BME280;3001;42.622;23.194;2023-02-16T00:10:45;92385.41;;;0.85;85.61
5952;BME280;3001;42.622;23.194;2023-02-16T00:13:34;92385.88;;;0.93;84.74
5952;BME280;3001;42.622;23.194;2023-02-16T00:16:12;92384.78;;;1.01;83.73
5952;BME280;3001;42.622;23.194;2023-02-16T00:18:38;92386.28;;;0.90;84.24
5952;BME280;3001;42.622;23.194;2023-02-16T00:21:05;92379.63;;;0.89;84.32
5952;BME280;3001;42.622;23.194;2023-02-16T00:23:32;92378.72;;;0.84;85.47
5952;BME280;3001;42.622;23.194;2023-02-16T00:25:58;92371.94;;;0.89;86.13
5952;BME280;3001;42.622;23.194;2023-02-16T00:28:25;92378.84;;;0.89;86.32
5952;BME280;3001;42.622;23.194;2023-02-16T00:30:53;92370.13;;;0.78;85.68
5952;BME280;3001;42.622;23.194;2023-02-16T00:33:20;92379.28;;;0.86;85.75
5952;BME280;3001;42.622;23.194;2023-02-16T00:35:47;92377.00;;;0.78;86.94
5952;BME280;3001;42.622;23.194;2023-02-16T00:38:14;92376.53;;;0.69;85.86
5952;BME280;3001;42.622;23.194;2023-02-16T00:40:41;92370.84;;;0.67;85.91
5952;BME280;3001;42.622;23.194;2023-02-16T00:43:12;92373.41;;;0.67;86.41
5952;BME280;3001;42.622;23.194;2023-02-16T00:45:45;92377.00;;;0.78;85.52
5952;BME280;3001;42.622;23.194;2023-02-16T00:48:13;92373.41;;;0.67;86.52
5952;BME280;3001;42.622;23.194;2023-02-16T00:50:40;92376.03;;;0.61;86.42
5952;BME280;3001;42.622;23.194;2023-02-16T00:53:06;92374.47;;;0.60;86.33
5952;BME280;3001;42.622;23.194;2023-02-16T00:55:35;92374.81;;;0.63;86.73
5952;BME280;3001;42.622;23.194;2023-02-16T00:58:05;92376.91;;;0.55;86.94
5952;BME280;3001;42.622;23.194;2023-02-16T01:00:34;92368.44;;;0.72;86.75
5952;BME280;3001;42.622;23.194;2023-02-16T01:03:05;92368.28;;;0.67;86.86
5952;BME280;3001;42.622;23.194;2023-02-16T01:05:34;92365.41;;;0.64;87.75
5952;BME280;3001;42.622;23.194;2023-02-16T01:08:01;92356.72;;;0.65;86.55
5952;BME280;3001;42.622;23.194;2023-02-16T01:10:47;92367.59;;;0.60;86.88
5952;BME280;3001;42.622;23.194;2023-02-16T01:13:34;92368.09;;;0.69;87.40
5952;BME280;3001;42.622;23.194;2023-02-16T01:16:02;92362.13;;;0.57;88.11
5952;BME280;3001;42.622;23.194;2023-02-16T01:18:29;92362.28;;;0.62;87.86
5952;BME280;3001;42.622;23.194;2023-02-16T01:20:57;92360.84;;;0.66;88.22
5952;BME280;3001;42.622;23.194;2023-02-16T01:23:23;92358.63;;;0.69;87.59
5952;BME280;3001;42.622;23.194;2023-02-16T01:25:51;92353.22;;;0.77;87.69
5952;BME280;3001;42.622;23.194;2023-02-16T01:28:20;92350.44;;;0.79;87.32
5952;BME280;3001;42.622;23.194;2023-02-16T01:30:47;92352.22;;;0.78;86.89
5952;BME280;3001;42.622;23.194;2023-02-16T01:33:14;92350.44;;;0.79;87.33
5952;BME280;3001;42.622;23.194;2023-02-16T01:35:41;92337.41;;;0.69;87.85
5952;BME280;3001;42.622;23.194;2023-02-16T01:38:15;92349.75;;;0.72;87.10
5952;BME280;3001;42.622;23.194;2023-02-16T01:40:47;92342.03;;;0.60;86.63
5952;BME280;3001;42.622;23.194;2023-02-16T01:43:18;92334.50;;;0.65;86.00
5952;BME280;3001;42.622;23.194;2023-02-16T01:45:50;92333.34;;;0.79;85.65
5952;BME280;3001;42.622;23.194;2023-02-16T01:48:22;92337.88;;;0.77;86.07
5952;BME280;3001;42.622;23.194;2023-02-16T01:50:55;92335.56;;;0.87;86.84
5952;BME280;3001;42.622;23.194;2023-02-16T01:53:30;92327.75;;;0.71;87.47
5952;BME280;3001;42.622;23.194;2023-02-16T01:56:01;92325.53;;;0.74;87.73
5952;BME280;3001;42.622;23.194;2023-02-16T01:58:35;92328.13;;;0.86;86.74
5952;BME280;3001;42.622;23.194;2023-02-16T02:01:34;92335.56;;;0.87;86.28
5952;BME280;3001;42.622;23.194;2023-02-16T02:04:19;92331.19;;;0.94;86.78
5952;BME280;3001;42.622;23.194;2023-02-16T02:07:04;92329.81;;;0.92;86.70
5952;BME280;3001;42.622;23.194;2023-02-16T02:09:37;92330.63;;;0.92;85.56
5952;BME280;3001;42.622;23.194;2023-02-16T02:12:13;92326.69;;;0.90;85.83
5952;BME280;3001;42.622;23.194;2023-02-16T02:14:42;92323.31;;;0.78;85.62
5952;BME280;3001;42.622;23.194;2023-02-16T02:17:11;92323.22;;;0.84;85.44
5952;BME280;3001;42.622;23.194;2023-02-16T02:19:46;92328.00;;;0.81;85.83
5952;BME280;3001;42.622;23.194;2023-02-16T02:22:47;92320.06;;;0.71;86.20
5952;BME280;3001;42.622;23.194;2023-02-16T02:25:55;92315.94;;;0.70;86.68
5952;BME280;3001;42.622;23.194;2023-02-16T02:28:34;92314.09;;;0.77;85.89
5952;BME280;3001;42.622;23.194;2023-02-16T02:31:09;92305.59;;;0.65;85.73
5952;BME280;3001;42.622;23.194;2023-02-16T02:33:50;92316.81;;;0.64;86.48
5952;BME280;3001;42.622;23.194;2023-02-16T02:36:27;92308.75;;;0.49;86.60
5952;BME280;3001;42.622;23.194;2023-02-16T02:39:03;92310.19;;;0.45;86.55
5952;BME280;3001;42.622;23.194;2023-02-16T02:41:39;92313.56;;;0.39;86.78
5952;BME280;3001;42.622;23.194;2023-02-16T02:44:28;92318.34;;;0.35;87.59
5952;BME280;3001;42.622;23.194;2023-02-16T02:46:55;92308.69;;;0.37;87.80
5952;BME280;3001;42.622;23.194;2023-02-16T02:49:22;92307.97;;;0.30;87.62
5952;BME280;3001;42.622;23.194;2023-02-16T02:51:49;92308.84;;;0.24;87.45
5952;BME280;3001;42.622;23.194;2023-02-16T02:54:18;92294.09;;;0.08;88.00
5952;BME280;3001;42.622;23.194;2023-02-16T02:57:06;92315.00;;;0.17;88.66
5952;BME280;3001;42.622;23.194;2023-02-16T02:59:57;92319.97;;;0.12;89.00
5952;BME280;3001;42.622;23.194;2023-02-16T03:02:44;92314.03;;;0.00;89.22
5952;BME280;3001;42.622;23.194;2023-02-16T03:05:14;92314.75;;;0.07;89.52
5952;BME280;3001;42.622;23.194;2023-02-16T03:07:43;92317.00;;;0.15;89.72
5952;BME280;3001;42.622;23.194;2023-02-16T03:10:16;92313.38;;;0.04;89.74
5952;BME280;3001;42.622;23.194;2023-02-16T03:12:58;92320.91;;;-0.01;90.54
5952;BME280;3001;42.622;23.194;2023-02-16T03:15:28;92319.34;;;-0.02;90.80
5952;BME280;3001;42.622;23.194;2023-02-16T03:17:56;92314.09;;;-0.06;91.41
5952;BME280;3001;42.622;23.194;2023-02-16T03:20:44;92306.06;;;-0.10;91.00
5952;BME280;3001;42.622;23.194;2023-02-16T03:23:29;92316.22;;;-0.03;91.95
5952;BME280;3001;42.622;23.194;2023-02-16T03:26:14;92312.06;;;0.02;90.91
5952;BME280;3001;42.622;23.194;2023-02-16T03:29:00;92313.03;;;0.01;90.91
5952;BME280;3001;42.622;23.194;2023-02-16T03:31:48;92304.72;;;0.05;90.78
5952;BME280;3001;42.622;23.194;2023-02-16T03:34:15;92309.78;;;0.12;90.72
5952;BME280;3001;42.622;23.194;2023-02-16T03:36:44;92309.56;;;0.13;90.35
5952;BME280;3001;42.622;23.194;2023-02-16T03:39:11;92308.00;;;0.12;90.83
5952;BME280;3001;42.622;23.194;2023-02-16T03:41:40;92308.00;;;0.12;90.07
5952;BME280;3001;42.622;23.194;2023-02-16T03:44:07;92302.53;;;0.09;90.72
5952;BME280;3001;42.622;23.194;2023-02-16T03:46:34;92303.31;;;0.09;90.39
5952;BME280;3001;42.622;23.194;2023-02-16T03:49:03;92304.53;;;0.07;90.60
5952;BME280;3001;42.622;23.194;2023-02-16T03:51:29;92310.97;;;0.09;90.77
5952;BME280;3001;42.622;23.194;2023-02-16T03:53:56;92300.41;;;0.06;89.59
5952;BME280;3001;42.622;23.194;2023-02-16T03:56:23;92299.91;;;0.15;89.69
5952;BME280;3001;42.622;23.194;2023-02-16T03:58:50;92300.56;;;0.11;90.25
5952;BME280;3001;42.622;23.194;2023-02-16T04:01:16;92296.44;;;0.10;90.25
5952;BME280;3001;42.622;23.194;2023-02-16T04:03:43;92296.22;;;0.11;90.47
5952;BME280;3001;42.622;23.194;2023-02-16T04:06:11;92291.53;;;0.08;90.57
5952;BME280;3001;42.622;23.194;2023-02-16T04:08:38;92287.78;;;0.11;91.04
5952;BME280;3001;42.622;23.194;2023-02-16T04:11:04;92285.84;;;0.24;90.51
5952;BME280;3001;42.622;23.194;2023-02-16T04:13:52;92281.03;;;0.34;90.49
5952;BME280;3001;42.622;23.194;2023-02-16T04:16:18;92278.91;;;0.31;90.47
5952;BME280;3001;42.622;23.194;2023-02-16T04:18:45;92284.91;;;0.37;90.54
5952;BME280;3001;42.622;23.194;2023-02-16T04:21:13;92270.09;;;0.27;90.55
5952;BME280;3001;42.622;23.194;2023-02-16T04:23:40;92283.63;;;0.46;89.72
5952;BME280;3001;42.622;23.194;2023-02-16T04:26:09;92279.16;;;0.41;89.07
5952;BME280;3001;42.622;23.194;2023-02-16T04:28:35;92274.84;;;0.42;88.69
5952;BME280;3001;42.622;23.194;2023-02-16T04:31:02;92269.84;;;0.47;88.13
5952;BME280;3001;42.622;23.194;2023-02-16T04:33:28;92277.59;;;0.40;88.77
5952;BME280;3001;42.622;23.194;2023-02-16T04:35:55;92276.97;;;0.45;88.39
5952;BME280;3001;42.622;23.194;2023-02-16T04:38:23;92273.84;;;0.43;88.77
5952;BME280;3001;42.622;23.194;2023-02-16T04:40:50;92273.47;;;0.39;89.83
5952;BME280;3001;42.622;23.194;2023-02-16T04:43:17;92270.38;;;0.37;89.09
5952;BME280;3001;42.622;23.194;2023-02-16T04:45:43;92272.28;;;0.42;89.28
5952;BME280;3001;42.622;23.194;2023-02-16T04:48:10;92281.28;;;0.44;89.43
5952;BME280;3001;42.622;23.194;2023-02-16T04:50:36;92278.66;;;0.51;89.72
5952;BME280;3001;42.622;23.194;2023-02-16T04:53:03;92284.13;;;0.54;89.16
5952;BME280;3001;42.622;23.194;2023-02-16T04:55:31;92285.13;;;0.53;88.88
5952;BME280;3001;42.622;23.194;2023-02-16T04:57:58;92281.88;;;0.58;89.04
5952;BME280;3001;42.622;23.194;2023-02-16T05:00:25;92266.31;;;0.48;89.49
5952;BME280;3001;42.622;23.194;2023-02-16T05:02:51;92286.66;;;0.54;88.67
5952;BME280;3001;42.622;23.194;2023-02-16T05:05:18;92292.03;;;0.64;88.35
5952;BME280;3001;42.622;23.194;2023-02-16T05:07:45;92293.59;;;0.65;88.33
5952;BME280;3001;42.622;23.194;2023-02-16T05:10:11;92293.03;;;0.63;88.93
5952;BME280;3001;42.622;23.194;2023-02-16T05:12:39;92310.47;;;0.66;87.91
5952;BME280;3001;42.622;23.194;2023-02-16T05:15:23;92291.84;;;0.48;87.90
5952;BME280;3001;42.622;23.194;2023-02-16T05:17:50;92298.53;;;0.49;88.34
5952;BME280;3001;42.622;23.194;2023-02-16T05:20:17;92298.97;;;0.46;88.02
5952;BME280;3001;42.622;23.194;2023-02-16T05:22:43;92302.22;;;0.35;89.40
5952;BME280;3001;42.622;23.194;2023-02-16T05:25:10;92306.00;;;0.32;90.14
5952;BME280;3001;42.622;23.194;2023-02-16T05:27:37;92306.56;;;0.34;89.70
5952;BME280;3001;42.622;23.194;2023-02-16T05:30:06;92315.00;;;0.35;89.01
5952;BME280;3001;42.622;23.194;2023-02-16T05:32:32;92310.47;;;0.37;89.22
5952;BME280;3001;42.622;23.194;2023-02-16T05:34:59;92315.72;;;0.42;87.55
5952;BME280;3001;42.622;23.194;2023-02-16T05:37:26;92321.25;;;0.39;88.12
5952;BME280;3001;42.622;23.194;2023-02-16T05:39:52;92309.13;;;0.34;88.01
5952;BME280;3001;42.622;23.194;2023-02-16T05:42:19;92318.84;;;0.44;88.59
5952;BME280;3001;42.622;23.194;2023-02-16T05:44:46;92317.50;;;0.41;88.80
5952;BME280;3001;42.622;23.194;2023-02-16T05:47:14;92320.84;;;0.42;90.09
5952;BME280;3001;42.622;23.194;2023-02-16T05:49:41;92312.56;;;0.40;88.63
5952;BME280;3001;42.622;23.194;2023-02-16T05:52:07;92314.84;;;0.48;88.19
5952;BME280;3001;42.622;23.194;2023-02-16T05:54:34;92319.13;;;0.36;89.43
5952;BME280;3001;42.622;23.194;2023-02-16T05:57:01;92329.41;;;0.47;87.62
5952;BME280;3001;42.622;23.194;2023-02-16T05:59:27;92328.34;;;0.37;87.96
5952;BME280;3001;42.622;23.194;2023-02-16T06:01:54;92342.91;;;0.36;88.77
5952;BME280;3001;42.622;23.194;2023-02-16T06:04:22;92335.50;;;0.28;88.90
5952;BME280;3001;42.622;23.194;2023-02-16T06:06:49;92315.31;;;0.27;88.76
5952;BME280;3001;42.622;23.194;2023-02-16T06:09:16;92340.13;;;0.38;89.65
5952;BME280;3001;42.622;23.194;2023-02-16T06:11:43;92333.97;;;0.27;88.52
5952;BME280;3001;42.622;23.194;2023-02-16T06:14:13;92343.69;;;0.37;88.14
5952;BME280;3001;42.622;23.194;2023-02-16T06:16:42;92350.16;;;0.39;87.55
5952;BME280;3001;42.622;23.194;2023-02-16T06:19:10;92350.50;;;0.43;87.17
5952;BME280;3001;42.622;23.194;2023-02-16T06:21:39;92347.22;;;0.54;87.17
5952;BME280;3001;42.622;23.194;2023-02-16T06:24:07;92358.00;;;0.56;86.02
5952;BME280;3001;42.622;23.194;2023-02-16T06:26:35;92359.00;;;0.55;85.43
5952;BME280;3001;42.622;23.194;2023-02-16T06:29:02;92358.84;;;0.68;86.27
5952;BME280;3001;42.622;23.194;2023-02-16T06:31:29;92369.84;;;0.68;86.47
5952;BME280;3001;42.622;23.194;2023-02-16T06:33:56;92363.03;;;0.62;86.16
5952;BME280;3001;42.622;23.194;2023-02-16T06:36:23;92357.00;;;0.57;87.75
5952;BME280;3001;42.622;23.194;2023-02-16T06:38:51;92359.38;;;0.58;88.78
5952;BME280;3001;42.622;23.194;2023-02-16T06:41:18;92356.56;;;0.60;89.90
5952;BME280;3001;42.622;23.194;2023-02-16T06:43:57;92358.63;;;0.69;88.89
5952;BME280;3001;42.622;23.194;2023-02-16T06:46:24;92362.19;;;0.68;89.44
5952;BME280;3001;42.622;23.194;2023-02-16T06:48:51;92355.06;;;0.70;87.41
5952;BME280;3001;42.622;23.194;2023-02-16T06:51:18;92364.09;;;0.73;87.88
5952;BME280;3001;42.622;23.194;2023-02-16T06:53:45;92362.75;;;0.70;88.33
5952;BME280;3001;42.622;23.194;2023-02-16T06:56:13;92361.97;;;0.70;87.88
5952;BME280;3001;42.622;23.194;2023-02-16T06:58:40;92368.22;;;0.74;88.73
5952;BME280;3001;42.622;23.194;2023-02-16T07:01:06;92362.91;;;0.75;88.27
5952;BME280;3001;42.622;23.194;2023-02-16T07:03:33;92358.91;;;0.79;88.68
5952;BME280;3001;42.622;23.194;2023-02-16T07:06:00;92360.81;;;0.84;88.90
5952;BME280;3001;42.622;23.194;2023-02-16T07:08:26;92348.16;;;0.89;87.68
5952;BME280;3001;42.622;23.194;2023-02-16T07:10:53;92343.59;;;0.91;88.78
5952;BME280;3001;42.622;23.194;2023-02-16T07:13:21;92345.97;;;0.92;88.95
5952;BME280;3001;42.622;23.194;2023-02-16T07:15:48;92340.13;;;0.85;89.49
5952;BME280;3001;42.622;23.194;2023-02-16T07:18:15;92339.25;;;0.91;89.31
5952;BME280;3001;42.622;23.194;2023-02-16T07:20:41;92336.97;;;1.01;89.08
5952;BME280;3001;42.622;23.194;2023-02-16T07:23:08;92337.34;;;1.16;88.09
5952;BME280;3001;42.622;23.194;2023-02-16T07:25:34;92331.03;;;1.42;88.14
5952;BME280;3001;42.622;23.194;2023-02-16T07:28:01;92337.41;;;1.51;87.74
5952;BME280;3001;42.622;23.194;2023-02-16T07:30:29;92329.06;;;1.44;88.37
5952;BME280;3001;42.622;23.194;2023-02-16T07:32:56;92333.06;;;1.40;88.23
5952;BME280;3001;42.622;23.194;2023-02-16T07:35:23;92334.06;;;1.50;87.88
5952;BME280;3001;42.622;23.194;2023-02-16T07:37:49;92328.19;;;1.50;88.00
5952;BME280;3001;42.622;23.194;2023-02-16T07:40:16;92332.75;;;1.59;88.77
5952;BME280;3001;42.622;23.194;2023-02-16T07:42:43;92337.78;;;1.54;88.98
5952;BME280;3001;42.622;23.194;2023-02-16T07:45:10;92331.88;;;1.65;88.21
5952;BME280;3001;42.622;23.194;2023-02-16T07:47:38;92333.13;;;1.74;87.45
5952;BME280;3001;42.622;23.194;2023-02-16T07:50:05;92334.78;;;1.80;88.35
5952;BME280;3001;42.622;23.194;2023-02-16T07:52:33;92335.09;;;1.83;88.69
5952;BME280;3001;42.622;23.194;2023-02-16T07:55:00;92347.59;;;1.91;87.56
5952;BME280;3001;42.622;23.194;2023-02-16T07:57:27;92339.69;;;2.16;86.30
5952;BME280;3001;42.622;23.194;2023-02-16T07:59:54;92342.53;;;2.31;86.46
5952;BME280;3001;42.622;23.194;2023-02-16T08:02:22;92343.63;;;2.35;85.52
5952;BME280;3001;42.622;23.194;2023-02-16T08:04:52;92344.97;;;2.37;85.27
5952;BME280;3001;42.622;23.194;2023-02-16T08:07:19;92347.06;;;2.52;85.05
5952;BME280;3001;42.622;23.194;2023-02-16T08:09:46;92350.03;;;2.72;84.04
5952;BME280;3001;42.622;23.194;2023-02-16T08:12:13;92354.44;;;2.88;82.99
5952;BME280;3001;42.622;23.194;2023-02-16T08:14:40;92352.63;;;3.00;83.29
5952;BME280;3001;42.622;23.194;2023-02-16T08:17:07;92351.13;;;2.87;83.12
5952;BME280;3001;42.622;23.194;2023-02-16T08:19:34;92360.53;;;2.98;81.75
5952;BME280;3001;42.622;23.194;2023-02-16T08:22:04;92349.91;;;3.06;81.59
5952;BME280;3001;42.622;23.194;2023-02-16T08:24:31;92360.63;;;3.31;80.45
5952;BME280;3001;42.622;23.194;2023-02-16T08:26:59;92358.53;;;3.28;80.79
5952;BME280;3001;42.622;23.194;2023-02-16T08:29:26;92369.06;;;3.43;79.16
5952;BME280;3001;42.622;23.194;2023-02-16T08:31:53;92365.00;;;3.47;79.06
5952;BME280;3001;42.622;23.194;2023-02-16T08:34:21;92362.94;;;3.60;79.17
5952;BME280;3001;42.622;23.194;2023-02-16T08:36:51;92367.75;;;3.73;78.60
5952;BME280;3001;42.622;23.194;2023-02-16T08:39:22;92370.19;;;3.96;77.60
5952;BME280;3001;42.622;23.194;2023-02-16T08:41:50;92370.19;;;3.96;77.93
5952;BME280;3001;42.622;23.194;2023-02-16T08:44:18;92367.13;;;4.16;78.00
5952;BME280;3001;42.622;23.194;2023-02-16T08:46:46;92374.22;;;4.25;77.33
5952;BME280;3001;42.622;23.194;2023-02-16T08:49:15;92358.69;;;4.37;77.44
5952;BME280;3001;42.622;23.194;2023-02-16T08:51:44;92363.31;;;4.56;76.37
5952;BME280;3001;42.622;23.194;2023-02-16T08:54:14;92359.25;;;4.82;76.62
5952;BME280;3001;42.622;23.194;2023-02-16T08:56:43;92367.44;;;5.00;76.30
5952;BME280;3001;42.622;23.194;2023-02-16T08:59:11;92364.88;;;5.21;75.43
5952;BME280;3001;42.622;23.194;2023-02-16T09:01:38;92358.94;;;5.47;74.52
5952;BME280;3001;42.622;23.194;2023-02-16T09:04:05;92369.44;;;5.67;74.21
5952;BME280;3001;42.622;23.194;2023-02-16T09:06:35;92360.69;;;5.68;74.07
5952;BME280;3001;42.622;23.194;2023-02-16T09:09:02;92366.16;;;5.77;74.18
5952;BME280;3001;42.622;23.194;2023-02-16T09:11:30;92369.72;;;5.92;73.28
5952;BME280;3001;42.622;23.194;2023-02-16T09:13:58;92367.88;;;6.24;72.54
5952;BME280;3001;42.622;23.194;2023-02-16T09:16:26;92361.38;;;6.58;72.03
5952;BME280;3001;42.622;23.194;2023-02-16T09:18:54;92364.63;;;6.90;71.25
5952;BME280;3001;42.622;23.194;2023-02-16T09:21:23;92360.66;;;7.29;69.92
5952;BME280;3001;42.622;23.194;2023-02-16T09:23:53;92364.59;;;7.56;69.89
5952;BME280;3001;42.622;23.194;2023-02-16T09:26:23;92360.78;;;7.99;67.71
5952;BME280;3001;42.622;23.194;2023-02-16T09:28:50;92365.44;;;8.47;65.61
5952;BME280;3001;42.622;23.194;2023-02-16T09:31:20;92367.44;;;8.74;64.95
5952;BME280;3001;42.622;23.194;2023-02-16T09:33:50;92364.31;;;8.92;64.10
5952;BME280;3001;42.622;23.194;2023-02-16T09:36:18;92361.91;;;9.16;61.67
5952;BME280;3001;42.622;23.194;2023-02-16T09:38:44;92368.47;;;9.52;58.76
5952;BME280;3001;42.622;23.194;2023-02-16T09:41:22;92366.03;;;9.70;53.11
5952;BME280;3001;42.622;23.194;2023-02-16T09:43:54;92365.38;;;9.93;52.58
5952;BME280;3001;42.622;23.194;2023-02-16T09:46:25;92368.56;;;10.24;53.65
5952;BME280;3001;42.622;23.194;2023-02-16T09:48:54;92364.00;;;10.44;52.65
5952;BME280;3001;42.622;23.194;2023-02-16T09:51:24;92363.38;;;10.80;52.46
5952;BME280;3001;42.622;23.194;2023-02-16T09:53:57;92361.06;;;11.02;52.11
5952;BME280;3001;42.622;23.194;2023-02-16T09:56:28;92360.03;;;11.27;50.93
5952;BME280;3001;42.622;23.194;2023-02-16T09:59:01;92355.75;;;11.59;49.22
5952;BME280;3001;42.622;23.194;2023-02-16T10:01:38;92352.44;;;11.72;47.37
5952;BME280;3001;42.622;23.194;2023-02-16T10:04:25;92356.41;;;12.07;45.88
5952;BME280;3001;42.622;23.194;2023-02-16T10:07:00;92357.19;;;12.20;45.29
5952;BME280;3001;42.622;23.194;2023-02-16T10:09:32;92352.94;;;12.43;44.65
5952;BME280;3001;42.622;23.194;2023-02-16T10:12:03;92347.94;;;12.46;42.87
5952;BME280;3001;42.622;23.194;2023-02-16T10:14:34;92351.09;;;12.75;41.56
5952;BME280;3001;42.622;23.194;2023-02-16T10:17:13;92342.09;;;13.00;41.16
5952;BME280;3001;42.622;23.194;2023-02-16T10:19:45;92339.75;;;13.12;40.12
5952;BME280;3001;42.622;23.194;2023-02-16T10:22:17;92350.59;;;13.32;39.30
5952;BME280;3001;42.622;23.194;2023-02-16T10:24:51;92345.00;;;13.39;37.34
5952;BME280;3001;42.622;23.194;2023-02-16T10:27:21;92342.06;;;13.54;36.00
5952;BME280;3001;42.622;23.194;2023-02-16T10:29:48;92342.03;;;13.67;34.80
5952;BME280;3001;42.622;23.194;2023-02-16T10:32:23;92332.38;;;13.68;34.93
5952;BME280;3001;42.622;23.194;2023-02-16T10:35:02;92346.66;;;13.83;35.88
5952;BME280;3001;42.622;23.194;2023-02-16T10:37:44;92344.22;;;14.00;33.61
5952;BME280;3001;42.622;23.194;2023-02-16T10:40:23;92342.44;;;14.09;32.95
5952;BME280;3001;42.622;23.194;2023-02-16T10:42:58;92342.34;;;14.01;31.90
5952;BME280;3001;42.622;23.194;2023-02-16T10:45:31;92339.75;;;14.01;34.16
5952;BME280;3001;42.622;23.194;2023-02-16T10:48:00;92340.09;;;14.08;34.40
5952;BME280;3001;42.622;23.194;2023-02-16T10:50:30;92326.72;;;14.23;34.77
5952;BME280;3001;42.622;23.194;2023-02-16T10:53:00;92338.25;;;14.22;33.42
5952;BME280;3001;42.622;23.194;2023-02-16T10:55:27;92335.63;;;14.22;33.55
5952;BME280;3001;42.622;23.194;2023-02-16T10:57:56;92334.03;;;14.34;33.85
5952;BME280;3001;42.622;23.194;2023-02-16T11:00:37;92332.44;;;14.25;31.25
5952;BME280;3001;42.622;23.194;2023-02-16T11:03:11;92321.94;;;14.03;32.40
5952;BME280;3001;42.622;23.194;2023-02-16T11:05:40;92324.91;;;14.23;33.64
5952;BME280;3001;42.622;23.194;2023-02-16T11:08:08;92323.91;;;14.33;33.57
5952;BME280;3001;42.622;23.194;2023-02-16T11:10:43;92320.78;;;14.53;33.07
5952;BME280;3001;42.622;23.194;2023-02-16T11:13:21;92314.63;;;14.79;33.52
5952;BME280;3001;42.622;23.194;2023-02-16T11:15:51;92321.94;;;14.99;32.90
5952;BME280;3001;42.622;23.194;2023-02-16T11:18:31;92322.16;;;15.11;33.05
5952;BME280;3001;42.622;23.194;2023-02-16T11:20:59;92320.41;;;15.29;32.31
5952;BME280;3001;42.622;23.194;2023-02-16T11:23:28;92318.25;;;15.31;30.15
5952;BME280;3001;42.622;23.194;2023-02-16T11:25:58;92310.97;;;15.28;30.97
5952;BME280;3001;42.622;23.194;2023-02-16T11:28:28;92308.94;;;15.16;30.26
5952;BME280;3001;42.622;23.194;2023-02-16T11:31:02;92309.88;;;15.12;30.26
5952;BME280;3001;42.622;23.194;2023-02-16T11:33:31;92298.03;;;15.23;30.83
5952;BME280;3001;42.622;23.194;2023-02-16T11:35:59;92303.34;;;15.40;29.84
5952;BME280;3001;42.622;23.194;2023-02-16T11:38:31;92302.13;;;15.46;30.67
5952;BME280;3001;42.622;23.194;2023-02-16T11:41:00;92295.06;;;15.55;30.92
5952;BME280;3001;42.622;23.194;2023-02-16T11:43:30;92301.56;;;15.74;31.91
5952;BME280;3001;42.622;23.194;2023-02-16T11:46:00;92291.41;;;15.89;31.03
5952;BME280;3001;42.622;23.194;2023-02-16T11:48:31;92291.28;;;15.94;30.95
5952;BME280;3001;42.622;23.194;2023-02-16T11:51:00;92298.81;;;15.87;30.41
5952;BME280;3001;42.622;23.194;2023-02-16T11:53:30;92297.59;;;15.93;30.85
5952;BME280;3001;42.622;23.194;2023-02-16T11:56:20;92296.81;;;15.93;31.25
5952;BME280;3001;42.622;23.194;2023-02-16T11:59:03;92285.09;;;16.07;30.77
5952;BME280;3001;42.622;23.194;2023-02-16T12:01:41;92291.56;;;16.10;30.64
5952;BME280;3001;42.622;23.194;2023-02-16T12:04:19;92288.78;;;16.23;30.68
5952;BME280;3001;42.622;23.194;2023-02-16T12:06:55;92284.00;;;16.34;30.61
5952;BME280;3001;42.622;23.194;2023-02-16T12:09:28;92281.56;;;16.37;28.27
5952;BME280;3001;42.622;23.194;2023-02-16T12:12:05;92281.53;;;16.20;29.90
5952;BME280;3001;42.622;23.194;2023-02-16T12:14:41;92273.06;;;16.15;30.32
5952;BME280;3001;42.622;23.194;2023-02-16T12:17:20;92278.00;;;16.08;29.79
5952;BME280;3001;42.622;23.194;2023-02-16T12:20:00;92270.59;;;16.01;30.25
5952;BME280;3001;42.622;23.194;2023-02-16T12:22:33;92266.28;;;16.22;30.66
5952;BME280;3001;42.622;23.194;2023-02-16T12:25:19;92272.91;;;16.37;29.79
5952;BME280;3001;42.622;23.194;2023-02-16T12:27:51;92269.34;;;16.50;29.88
5952;BME280;3001;42.622;23.194;2023-02-16T12:30:31;92255.88;;;16.60;30.17
5952;BME280;3001;42.622;23.194;2023-02-16T12:33:13;92260.19;;;16.73;30.22
5952;BME280;3001;42.622;23.194;2023-02-16T12:38:57;92255.78;;;16.94;30.08
5952;BME280;3001;42.622;23.194;2023-02-16T12:41:34;92252.53;;;16.97;29.84
5952;BME280;3001;42.622;23.194;2023-02-16T12:44:11;92256.94;;;16.67;27.54
5952;BME280;3001;42.622;23.194;2023-02-16T12:46:42;92237.38;;;16.65;29.07
5952;BME280;3001;42.622;23.194;2023-02-16T12:49:13;92239.00;;;16.86;28.33
5952;BME280;3001;42.622;23.194;2023-02-16T12:51:47;92243.50;;;16.77;28.52
5952;BME280;3001;42.622;23.194;2023-02-16T12:54:16;92236.38;;;16.78;29.37
5952;BME280;3001;42.622;23.194;2023-02-16T12:56:50;92242.22;;;16.92;28.01
5952;BME280;3001;42.622;23.194;2023-02-16T12:59:21;92245.84;;;16.70;26.03
5952;BME280;3001;42.622;23.194;2023-02-16T13:01:51;92234.63;;;16.53;27.93
5952;BME280;3001;42.622;23.194;2023-02-16T13:04:25;92238.00;;;16.53;28.20
5952;BME280;3001;42.622;23.194;2023-02-16T13:07:03;92229.56;;;16.39;27.03
5952;BME280;3001;42.622;23.194;2023-02-16T13:09:36;92230.66;;;16.38;27.71
5952;BME280;3001;42.622;23.194;2023-02-16T13:12:10;92230.94;;;16.37;27.99
5952;BME280;3001;42.622;23.194;2023-02-16T13:14:42;92229.22;;;16.32;29.18
5952;BME280;3001;42.622;23.194;2023-02-16T13:17:14;92228.47;;;16.49;28.51
5952;BME280;3001;42.622;23.194;2023-02-16T13:19:43;92227.34;;;16.67;29.23
5952;BME280;3001;42.622;23.194;2023-02-16T13:22:26;92226.22;;;16.76;29.04
5952;BME280;3001;42.622;23.194;2023-02-16T13:25:21;92226.88;;;16.65;28.11
5952;BME280;3001;42.622;23.194;2023-02-16T13:27:57;92217.94;;;16.66;28.11
5952;BME280;3001;42.622;23.194;2023-02-16T13:33:45;92214.13;;;16.38;27.39
5952;BME280;3001;42.622;23.194;2023-02-16T13:36:39;92206.13;;;16.26;27.64
5952;BME280;3001;42.622;23.194;2023-02-16T13:39:21;92203.66;;;16.21;28.44
5952;BME280;3001;42.622;23.194;2023-02-16T13:41:59;92198.13;;;16.14;28.48
5952;BME280;3001;42.622;23.194;2023-02-16T13:44:36;92205.53;;;16.12;28.62